Time;durP1;ratioP1;P1;durP2;ratioP2;P2;SDS_P1;SDS_P2;PMS_P1;PMS_P2;Temp;Humidity;BMP_temperature;BMP_pressure;BME280_temperature;BME280_humidity;BME280_pressure;Samples;Min_cycle;Max_cycle;Signal;HPM_P1;HPM_P2
2021/05/06 00:02:00;;;;;;;;;;;;;;;7.45;61.64;92338.38;2041832;70;20506;-86
2021/05/06 00:34:15;;;;;;;;;;;;;;;6.99;64.09;92342.31;2031247;70;20052;-84
2021/05/06 00:36:41;;;;;;;;;;;;;;;7.00;62.86;92343.78;2031240;70;20172;-84
2021/05/06 00:39:11;;;;;;;;;;;;;;;6.90;63.81;92329.09;2031081;70;20109;-79
2021/05/06 01:05:53;;;;;;;;;;;;;;;6.35;64.81;92346.38;2042638;70;20138;-86
2021/05/06 01:13:31;;;;;;;;;;;;;;;6.35;64.46;92331.66;2041669;70;20483;-83
2021/05/06 01:15:59;;;;;;;;;;;;;;;6.50;64.29;92330.59;2041741;70;20058;-87
2021/05/06 01:18:24;;;;;;;;;;;;;;;6.40;64.39;92335.47;2042558;70;20040;-86
2021/05/06 01:20:55;;;;;;;;;;;;;;;6.46;64.26;92339.44;2042292;70;20048;-81
2021/05/06 01:23:22;;;;;;;;;;;;;;;6.52;63.56;92345.44;2042324;70;20177;-87
2021/05/06 01:25:54;;;;;;;;;;;;;;;6.57;64.23;92341.59;2042220;70;20068;-84
2021/05/06 01:28:24;;;;;;;;;;;;;;;6.60;64.46;92334.09;2042427;70;20039;-85
2021/05/06 01:36:44;;;;;;;;;;;;;;;6.58;64.89;92343.06;2031601;70;20116;-84
2021/05/06 01:44:17;;;;;;;;;;;;;;;6.32;64.98;92328.00;2042209;70;20096;-85
2021/05/06 01:57:48;;;;;;;;;;;;;;;6.28;65.81;92318.59;2043301;70;20176;-87
2021/05/06 02:00:22;;;;;;;;;;;;;;;6.05;66.58;92313.50;2042414;70;20525;-85
2021/05/06 02:02:55;;;;;;;;;;;;;;;6.22;66.30;92312.56;2041874;70;20053;-85
2021/05/06 02:05:29;;;;;;;;;;;;;;;6.02;66.01;92314.69;2041849;70;20479;-86
2021/05/06 02:07:54;;;;;;;;;;;;;;;5.96;66.46;92309.41;2042603;70;20051;-86
2021/05/06 02:10:28;;;;;;;;;;;;;;;6.08;66.52;92306.72;2041895;70;20048;-84
2021/05/06 02:12:57;;;;;;;;;;;;;;;5.98;66.81;92308.78;2041743;70;20059;-85
2021/05/06 02:15:28;;;;;;;;;;;;;;;5.88;66.79;92308.78;2038860;70;20067;-83
2021/05/06 02:17:56;;;;;;;;;;;;;;;5.95;66.81;92302.31;2041618;70;20502;-86
2021/05/06 02:20:21;;;;;;;;;;;;;;;5.77;65.97;92307.34;2039066;70;20085;-85
2021/05/06 02:22:49;;;;;;;;;;;;;;;5.76;68.16;92308.63;2042282;70;20044;-85
2021/05/06 02:25:15;;;;;;;;;;;;;;;5.67;67.40;92301.00;2041575;70;20039;-85
2021/05/06 02:27:41;;;;;;;;;;;;;;;5.60;67.00;92299.09;2042270;70;20166;-82
2021/05/06 02:30:07;;;;;;;;;;;;;;;5.59;67.48;92294.84;2041546;70;20063;-88
2021/05/06 02:32:34;;;;;;;;;;;;;;;5.56;67.07;92293.97;2041983;70;20048;-86
2021/05/06 02:34:59;;;;;;;;;;;;;;;5.52;67.63;92287.34;2042203;70;20135;-87
2021/05/06 02:37:26;;;;;;;;;;;;;;;5.72;66.56;92293.66;2042359;70;20567;-85
2021/05/06 02:39:52;;;;;;;;;;;;;;;5.79;66.21;92301.16;2041971;70;20054;-84
2021/05/06 02:42:17;;;;;;;;;;;;;;;5.37;68.54;92296.03;2042267;70;20140;-85
2021/05/06 02:44:44;;;;;;;;;;;;;;;5.50;68.49;92293.53;2042445;70;20040;-86
2021/05/06 02:47:09;;;;;;;;;;;;;;;5.64;68.46;92282.66;2041866;70;20494;-83
2021/05/06 02:49:36;;;;;;;;;;;;;;;5.58;68.22;92277.34;2042193;70;20054;-86
2021/05/06 02:52:12;;;;;;;;;;;;;;;5.66;68.20;92277.19;2041669;70;20044;-85
2021/05/06 02:54:44;;;;;;;;;;;;;;;5.65;66.92;92277.78;2041955;70;20051;-85
2021/05/06 02:57:29;;;;;;;;;;;;;;;5.57;67.45;92275.16;2042003;70;20042;-80
2021/05/06 03:02:51;;;;;;;;;;;;;;;5.55;68.23;92280.59;2042259;70;20051;-87
2021/05/06 03:05:18;;;;;;;;;;;;;;;5.59;67.20;92278.09;2042320;70;20055;-85
2021/05/06 03:07:49;;;;;;;;;;;;;;;5.55;67.76;92277.81;2042229;70;20427;-85
2021/05/06 03:23:22;;;;;;;;;;;;;;;5.48;68.37;92262.66;2044163;70;20078;-85
2021/05/06 03:25:49;;;;;;;;;;;;;;;5.43;67.71;92274.13;2042549;70;20492;-80
2021/05/06 03:28:25;;;;;;;;;;;;;;;5.30;68.33;92280.88;2041875;70;20086;-82
2021/05/06 03:41:54;;;;;;;;;;;;;;;5.30;68.62;92267.66;2045379;70;20055;-81
2021/05/06 04:12:15;;;;;;;;;;;;;;;5.31;68.06;92285.91;2042614;70;20110;-85
2021/05/06 04:37:52;;;;;;;;;;;;;;;5.83;68.38;92253.97;2041882;70;20056;-78
2021/05/06 05:04:37;;;;;;;;;;;;;;;6.10;67.87;92257.31;2041683;70;20047;-83
2021/05/06 05:21:13;;;;;;;;;;;;;;;6.15;67.50;92297.44;2041739;70;20048;-81
2021/05/06 05:26:08;;;;;;;;;;;;;;;5.88;67.81;92266.88;2042688;70;20060;-80
2021/05/06 05:28:34;;;;;;;;;;;;;;;6.56;66.99;92264.63;2041297;70;20495;-82
2021/05/06 05:31:00;;;;;;;;;;;;;;;6.64;65.82;92275.63;2040925;70;20455;-83
2021/05/06 05:33:27;;;;;;;;;;;;;;;6.77;64.80;92268.78;2041550;70;20475;-82
2021/05/06 05:40:49;;;;;;;;;;;;;;;7.18;64.48;92258.22;2041684;70;20103;-82
2021/05/06 05:56:33;;;;;;;;;;;;;;;7.95;64.46;92262.47;2042031;70;20215;-81
2021/05/06 05:58:58;;;;;;;;;;;;;;;8.03;63.65;92254.56;2042025;70;20562;-82
2021/05/06 06:01:24;;;;;;;;;;;;;;;8.09;62.63;92262.63;2041308;70;20087;-81
2021/05/06 06:03:50;;;;;;;;;;;;;;;7.53;62.52;92266.09;2042159;70;20054;-87
2021/05/06 06:06:15;;;;;;;;;;;;;;;7.46;63.85;92262.16;2041497;70;20051;-83
2021/05/06 06:08:42;;;;;;;;;;;;;;;7.79;63.49;92267.03;2042092;70;20464;-85
2021/05/06 06:11:07;;;;;;;;;;;;;;;8.27;63.00;92286.19;2042050;70;20046;-82
2021/05/06 06:13:33;;;;;;;;;;;;;;;8.54;62.13;92285.78;2042203;70;20039;-81
2021/05/06 06:23:44;;;;;;;;;;;;;;;7.66;64.15;92293.56;2037947;70;20105;-82
2021/05/06 06:26:09;;;;;;;;;;;;;;;8.04;61.84;92274.94;2041949;70;20464;-80
2021/05/06 06:28:40;;;;;;;;;;;;;;;8.43;61.26;92264.06;2041960;70;20427;-81
2021/05/06 06:31:11;;;;;;;;;;;;;;;8.33;60.93;92255.72;2041908;70;20054;-81
2021/05/06 06:33:37;;;;;;;;;;;;;;;8.46;60.82;92251.63;2041907;70;20079;-81
2021/05/06 06:36:02;;;;;;;;;;;;;;;8.86;59.18;92247.00;2041400;70;20139;-82
2021/05/06 06:38:28;;;;;;;;;;;;;;;9.27;58.10;92240.97;2041982;70;20108;-82
2021/05/06 06:40:53;;;;;;;;;;;;;;;9.34;58.10;92245.56;2041930;70;20067;-80
2021/05/06 06:43:19;;;;;;;;;;;;;;;8.72;57.91;92241.28;2041958;70;20043;-82
2021/05/06 06:45:44;;;;;;;;;;;;;;;8.43;58.95;92247.25;2041870;70;20079;-79
2021/05/06 06:48:12;;;;;;;;;;;;;;;7.87;61.19;92239.53;2041933;70;20058;-80
2021/05/06 06:50:37;;;;;;;;;;;;;;;8.50;61.13;92245.53;2042083;70;20073;-81
2021/05/06 06:53:03;;;;;;;;;;;;;;;8.60;61.04;92240.53;2041912;70;20484;-85
2021/05/06 06:55:28;;;;;;;;;;;;;;;9.31;58.41;92246.81;2042089;70;20090;-81
2021/05/06 06:58:05;;;;;;;;;;;;;;;9.62;58.82;92235.97;2041858;70;20123;-82
2021/05/06 07:00:30;;;;;;;;;;;;;;;9.54;57.53;92229.91;2040938;70;20054;-81
2021/05/06 07:02:56;;;;;;;;;;;;;;;8.58;58.88;92232.72;2042008;70;20043;-82
2021/05/06 07:05:21;;;;;;;;;;;;;;;8.79;58.28;92237.47;2041966;70;20050;-83
2021/05/06 07:07:47;;;;;;;;;;;;;;;9.54;56.76;92234.78;2041963;70;20115;-82
2021/05/06 07:10:12;;;;;;;;;;;;;;;9.13;55.88;92233.16;2043147;70;20134;-81
2021/05/06 07:12:39;;;;;;;;;;;;;;;9.56;55.95;92218.03;2042461;70;20044;-83
2021/05/06 07:15:04;;;;;;;;;;;;;;;9.88;54.00;92216.31;2041868;70;20051;-81
2021/05/06 07:17:30;;;;;;;;;;;;;;;10.36;55.29;92209.09;2041909;70;20501;-81
2021/05/06 07:19:55;;;;;;;;;;;;;;;10.91;53.84;92204.25;2041820;70;20094;-82
2021/05/06 07:22:21;;;;;;;;;;;;;;;10.28;54.30;92205.84;2042017;70;20052;-84
2021/05/06 07:24:46;;;;;;;;;;;;;;;11.26;53.25;92211.63;2041904;70;20055;-81
2021/05/06 07:27:12;;;;;;;;;;;;;;;11.05;53.17;92207.06;2041885;70;20085;-81
2021/05/06 07:29:37;;;;;;;;;;;;;;;9.67;55.28;92206.03;2041857;70;20058;-83
2021/05/06 07:32:03;;;;;;;;;;;;;;;9.97;54.61;92198.53;2041211;70;20056;-80
2021/05/06 07:34:28;;;;;;;;;;;;;;;10.31;53.07;92196.91;2041979;70;20478;-81
2021/05/06 07:36:54;;;;;;;;;;;;;;;11.46;51.60;92197.84;2041880;70;20079;-81
2021/05/06 07:39:19;;;;;;;;;;;;;;;11.18;50.62;92195.06;2041958;70;20059;-81
2021/05/06 07:41:44;;;;;;;;;;;;;;;10.91;52.08;92190.16;2041868;70;20074;-83
2021/05/06 07:44:10;;;;;;;;;;;;;;;11.28;50.33;92197.66;2041899;70;20131;-81
2021/05/06 07:46:35;;;;;;;;;;;;;;;12.09;47.09;92186.03;2041741;70;20150;-83
2021/05/06 07:49:01;;;;;;;;;;;;;;;12.44;46.23;92189.09;2041835;70;20083;-82
2021/05/06 07:51:27;;;;;;;;;;;;;;;13.00;46.02;92180.25;2042050;70;20398;-85
2021/05/06 07:53:53;;;;;;;;;;;;;;;13.26;45.12;92180.69;2041768;70;20139;-81
2021/05/06 07:56:19;;;;;;;;;;;;;;;12.42;43.71;92179.81;2041772;70;20155;-83
2021/05/06 07:58:45;;;;;;;;;;;;;;;12.04;44.78;92173.09;2041826;70;20043;-84
2021/05/06 08:01:10;;;;;;;;;;;;;;;13.68;44.43;92164.75;2041686;70;20122;-81
2021/05/06 08:03:37;;;;;;;;;;;;;;;13.79;43.32;92155.31;2041921;70;20055;-82
2021/05/06 08:06:03;;;;;;;;;;;;;;;13.89;44.21;92155.72;2041889;70;20135;-82
2021/05/06 08:08:28;;;;;;;;;;;;;;;14.13;44.06;92138.22;2041702;70;20142;-84
2021/05/06 08:10:56;;;;;;;;;;;;;;;14.35;42.94;92141.94;2041715;70;20075;-85
2021/05/06 08:13:22;;;;;;;;;;;;;;;13.24;44.48;92141.75;2041802;70;20056;-83
2021/05/06 08:15:52;;;;;;;;;;;;;;;13.67;41.96;92126.53;2041646;70;20458;-81
2021/05/06 08:18:17;;;;;;;;;;;;;;;14.85;40.07;92128.22;2041716;70;20139;-84
2021/05/06 08:20:43;;;;;;;;;;;;;;;14.47;40.57;92131.03;2041757;70;20081;-84
2021/05/06 08:23:10;;;;;;;;;;;;;;;14.99;39.46;92116.66;2041174;70;20491;-82
2021/05/06 08:25:35;;;;;;;;;;;;;;;14.48;38.78;92118.38;2041688;70;20043;-82
2021/05/06 08:28:01;;;;;;;;;;;;;;;13.31;41.33;92120.84;2041688;70;20145;-82
2021/05/06 08:30:26;;;;;;;;;;;;;;;13.32;41.63;92127.22;2043635;70;20047;-82
2021/05/06 08:32:52;;;;;;;;;;;;;;;14.52;40.01;92122.72;2041686;70;20040;-83
2021/05/06 08:35:17;;;;;;;;;;;;;;;15.35;39.17;92111.50;2041665;70;20055;-82
2021/05/06 08:37:43;;;;;;;;;;;;;;;14.10;40.70;92108.38;2041610;70;20051;-81
2021/05/06 08:40:08;;;;;;;;;;;;;;;14.52;42.72;92108.56;2041679;70;20059;-81
2021/05/06 08:42:35;;;;;;;;;;;;;;;15.59;39.60;92105.19;2041077;70;20071;-80
2021/05/06 08:45:02;;;;;;;;;;;;;;;16.59;36.18;92114.00;2041549;70;20178;-83
2021/05/06 08:47:28;;;;;;;;;;;;;;;16.19;36.44;92106.41;2041618;70;20423;-82
2021/05/06 08:49:53;;;;;;;;;;;;;;;17.59;35.82;92097.53;2041739;70;20064;-81
2021/05/06 08:52:20;;;;;;;;;;;;;;;17.25;34.87;92080.28;2041609;70;20070;-82
2021/05/06 08:54:49;;;;;;;;;;;;;;;16.34;38.26;92079.16;2042051;70;20087;-81
2021/05/06 08:57:14;;;;;;;;;;;;;;;16.05;37.84;92076.88;2041265;70;20534;-82
2021/05/06 08:59:40;;;;;;;;;;;;;;;16.89;36.01;92072.22;2041589;70;20043;-82
2021/05/06 09:02:05;;;;;;;;;;;;;;;16.73;34.99;92075.34;2040945;70;20040;-81
2021/05/06 09:04:31;;;;;;;;;;;;;;;17.50;36.25;92065.31;2041629;70;20407;-81
2021/05/06 09:07:00;;;;;;;;;;;;;;;16.82;35.66;92058.53;2041554;70;20063;-82
2021/05/06 09:09:30;;;;;;;;;;;;;;;16.74;36.00;92056.19;2041565;70;20050;-79
2021/05/06 09:11:56;;;;;;;;;;;;;;;14.95;38.33;92046.38;2041548;70;20514;-81
2021/05/06 09:14:34;;;;;;;;;;;;;;;16.59;36.56;92046.50;2041586;70;20040;-80
2021/05/06 09:16:59;;;;;;;;;;;;;;;15.77;37.25;92045.50;2041491;70;20567;-79
2021/05/06 09:19:25;;;;;;;;;;;;;;;16.97;34.83;92044.03;2041626;70;20051;-83
2021/05/06 09:21:50;;;;;;;;;;;;;;;16.72;35.58;92047.59;2041849;70;20418;-79
2021/05/06 09:24:22;;;;;;;;;;;;;;;18.11;34.71;92039.72;2042244;70;20083;-78
2021/05/06 09:26:48;;;;;;;;;;;;;;;18.66;31.98;92038.03;2042064;70;20044;-79
2021/05/06 09:29:27;;;;;;;;;;;;;;;19.64;30.18;92037.75;2042083;70;20063;-80
2021/05/06 09:31:53;;;;;;;;;;;;;;;19.49;32.00;92024.63;2041417;70;20078;-80
2021/05/06 09:34:18;;;;;;;;;;;;;;;18.87;30.42;92019.94;2041672;70;20055;-80
2021/05/06 09:36:44;;;;;;;;;;;;;;;18.33;31.97;92016.69;2042170;70;20094;-82
2021/05/06 09:39:10;;;;;;;;;;;;;;;19.23;30.77;92027.72;2042189;70;20139;-80
2021/05/06 09:41:36;;;;;;;;;;;;;;;18.23;33.09;92022.88;2042077;70;20055;-81
2021/05/06 09:44:09;;;;;;;;;;;;;;;17.88;32.31;92015.69;2042070;70;20114;-80
2021/05/06 09:46:37;;;;;;;;;;;;;;;17.66;31.90;92013.03;2041880;70;20154;-80
2021/05/06 09:49:02;;;;;;;;;;;;;;;18.13;32.32;92009.13;2042013;70;20083;-82
2021/05/06 09:51:31;;;;;;;;;;;;;;;17.98;32.18;92005.25;2041847;70;20138;-82
2021/05/06 09:53:57;;;;;;;;;;;;;;;16.51;34.31;92007.22;2041991;70;20047;-79
2021/05/06 09:56:26;;;;;;;;;;;;;;;18.38;34.04;92010.38;2042008;70;20052;-79
2021/05/06 09:58:52;;;;;;;;;;;;;;;18.29;32.29;91997.38;2042009;70;20047;-80
2021/05/06 10:01:18;;;;;;;;;;;;;;;19.24;31.50;91994.94;2041681;70;20044;-79
2021/05/06 10:03:44;;;;;;;;;;;;;;;17.48;32.32;91996.25;2041968;70;20131;-78
2021/05/06 10:06:11;;;;;;;;;;;;;;;16.89;33.08;92000.44;2041927;70;20075;-79
2021/05/06 10:08:37;;;;;;;;;;;;;;;16.72;33.76;92000.03;2043923;70;20081;-79
2021/05/06 10:11:06;;;;;;;;;;;;;;;17.78;31.55;92004.81;2041951;70;20044;-81
2021/05/06 10:13:32;;;;;;;;;;;;;;;16.16;33.76;91999.84;2041991;70;20139;-80
2021/05/06 10:15:58;;;;;;;;;;;;;;;16.90;32.23;91994.06;2041873;70;20056;-80
2021/05/06 10:18:23;;;;;;;;;;;;;;;18.22;32.53;91996.50;2042064;70;20054;-80
2021/05/06 10:20:48;;;;;;;;;;;;;;;18.56;31.38;91998.66;2041997;70;20055;-82
2021/05/06 10:23:15;;;;;;;;;;;;;;;18.56;31.05;91989.38;2042003;70;20098;-81
2021/05/06 10:25:41;;;;;;;;;;;;;;;19.02;30.74;91990.28;2041925;70;20051;-81
2021/05/06 10:28:06;;;;;;;;;;;;;;;18.36;31.62;91996.09;2041986;70;20153;-78
2021/05/06 10:30:32;;;;;;;;;;;;;;;18.40;29.47;91998.31;2041947;70;20095;-81
2021/05/06 10:32:58;;;;;;;;;;;;;;;16.82;31.96;91987.47;2041902;70;20920;-80
2021/05/06 10:35:26;;;;;;;;;;;;;;;17.03;33.28;91986.59;2041973;70;20054;-80
2021/05/06 10:37:53;;;;;;;;;;;;;;;17.65;31.44;91992.38;2042168;70;20048;-81
2021/05/06 10:40:22;;;;;;;;;;;;;;;17.11;31.29;91991.78;2044022;70;20043;-81
2021/05/06 10:42:48;;;;;;;;;;;;;;;17.91;31.35;91997.25;2041927;70;20051;-81
2021/05/06 10:45:14;;;;;;;;;;;;;;;17.58;30.31;91987.22;2041861;70;20044;-81
2021/05/06 10:47:49;;;;;;;;;;;;;;;18.03;31.42;91988.97;2041961;70;20550;-80
2021/05/06 10:50:15;;;;;;;;;;;;;;;17.27;32.71;91980.78;2041917;70;20055;-82
2021/05/06 10:52:41;;;;;;;;;;;;;;;16.53;33.39;91978.88;2042005;70;20052;-79
2021/05/06 10:55:09;;;;;;;;;;;;;;;18.53;31.43;91980.78;2041900;70;20048;-79
2021/05/06 10:57:35;;;;;;;;;;;;;;;17.60;31.47;91981.59;2041843;70;20407;-80
2021/05/06 11:00:03;;;;;;;;;;;;;;;16.56;33.13;91965.44;2041655;70;20043;-81
2021/05/06 11:02:38;;;;;;;;;;;;;;;18.02;31.64;91964.75;2041375;70;20111;-83
2021/05/06 11:05:10;;;;;;;;;;;;;;;19.32;30.95;91969.41;2041910;70;20050;-80
2021/05/06 11:07:36;;;;;;;;;;;;;;;20.29;29.78;91967.31;2041863;70;20127;-80
2021/05/06 11:10:04;;;;;;;;;;;;;;;19.04;28.77;91961.78;2041998;70;20432;-82
2021/05/06 11:12:30;;;;;;;;;;;;;;;18.73;29.31;91960.50;2041840;70;20080;-80
2021/05/06 11:15:02;;;;;;;;;;;;;;;19.58;29.22;91954.13;2041799;70;20051;-82
2021/05/06 11:17:40;;;;;;;;;;;;;;;17.66;32.53;91947.56;2041925;70;20087;-83
2021/05/06 11:20:12;;;;;;;;;;;;;;;20.41;29.92;91949.59;2042072;70;20140;-84
2021/05/06 11:22:47;;;;;;;;;;;;;;;17.77;31.65;91932.91;2042131;70;20051;-80
2021/05/06 11:28:00;;;;;;;;;;;;;;;20.56;28.69;91928.34;2041632;70;20058;-84
2021/05/06 11:30:44;;;;;;;;;;;;;;;20.41;28.95;91926.00;2041063;70;20408;-84
2021/05/06 11:33:18;;;;;;;;;;;;;;;20.45;29.68;91926.06;2041304;70;20047;-85
2021/05/06 11:36:03;;;;;;;;;;;;;;;19.67;30.59;91915.75;2041543;70;20050;-85
2021/05/06 11:38:38;;;;;;;;;;;;;;;19.78;30.85;91920.91;2041620;70;20067;-85
2021/05/06 11:41:04;;;;;;;;;;;;;;;18.90;30.44;91898.81;2041682;70;20151;-82
2021/05/06 11:43:30;;;;;;;;;;;;;;;18.01;31.42;91900.69;2041517;70;20147;-84
2021/05/06 11:46:04;;;;;;;;;;;;;;;17.81;31.96;91903.09;2041364;70;20485;-85
2021/05/06 11:48:34;;;;;;;;;;;;;;;17.46;33.26;91890.94;2041475;70;20056;-85
2021/05/06 11:51:00;;;;;;;;;;;;;;;18.31;33.17;91879.88;2041377;70;20142;-85
2021/05/06 11:53:25;;;;;;;;;;;;;;;17.04;32.98;91871.47;2041767;70;20473;-86
2021/05/06 11:55:50;;;;;;;;;;;;;;;17.26;34.19;91871.25;2041176;70;20496;-85
2021/05/06 11:58:23;;;;;;;;;;;;;;;18.29;32.53;91877.72;2041469;70;20056;-85
2021/05/06 12:00:51;;;;;;;;;;;;;;;18.38;31.22;91870.78;2041403;70;20484;-83
2021/05/06 12:03:16;;;;;;;;;;;;;;;18.94;32.28;91867.50;2041508;70;20044;-85
2021/05/06 12:05:56;;;;;;;;;;;;;;;19.38;31.07;91863.94;2041281;70;20075;-86
2021/05/06 12:08:24;;;;;;;;;;;;;;;17.74;31.53;91848.16;2041592;70;20083;-87
2021/05/06 12:10:50;;;;;;;;;;;;;;;19.07;30.73;91847.75;2040912;70;20056;-86
2021/05/06 12:13:17;;;;;;;;;;;;;;;18.57;30.90;91854.72;2041571;70;20066;-88
2021/05/06 12:15:43;;;;;;;;;;;;;;;17.65;31.86;91841.53;2041766;70;20051;-89
2021/05/06 12:18:16;;;;;;;;;;;;;;;17.48;31.89;91836.91;2041671;70;20059;-88
2021/05/06 12:20:51;;;;;;;;;;;;;;;17.17;31.86;91836.22;2041134;70;20051;-87
2021/05/06 12:23:17;;;;;;;;;;;;;;;17.37;32.58;91833.13;2044016;70;20127;-87
2021/05/06 12:25:43;;;;;;;;;;;;;;;17.33;32.08;91835.16;2041170;70;20182;-83
2021/05/06 12:28:09;;;;;;;;;;;;;;;16.52;32.44;91828.97;2041660;70;20572;-80
2021/05/06 12:30:35;;;;;;;;;;;;;;;17.92;30.88;91831.44;2041426;70;20648;-80
2021/05/06 12:33:00;;;;;;;;;;;;;;;17.39;31.74;91824.63;2041547;70;20047;-82
2021/05/06 12:35:26;;;;;;;;;;;;;;;15.62;33.77;91829.41;2041522;70;20114;-84
2021/05/06 12:37:54;;;;;;;;;;;;;;;15.91;32.95;91819.59;2041600;70;20044;-87
2021/05/06 12:40:20;;;;;;;;;;;;;;;15.94;33.47;91811.84;2041549;70;20137;-82
2021/05/06 12:42:45;;;;;;;;;;;;;;;15.97;33.11;91808.41;2041572;70;20472;-85
2021/05/06 12:45:14;;;;;;;;;;;;;;;16.71;33.02;91805.28;2041500;70;20043;-84
2021/05/06 12:47:44;;;;;;;;;;;;;;;17.13;31.98;91806.97;2041823;70;20083;-84
2021/05/06 12:50:19;;;;;;;;;;;;;;;17.38;32.91;91802.56;2040950;70;20462;-85
2021/05/06 12:52:45;;;;;;;;;;;;;;;17.73;31.90;91799.06;2041532;70;20071;-83
2021/05/06 12:55:15;;;;;;;;;;;;;;;16.86;32.51;91788.59;2041517;70;20493;-85
2021/05/06 12:57:41;;;;;;;;;;;;;;;16.65;33.89;91784.53;2042103;70;20047;-86
2021/05/06 13:00:19;;;;;;;;;;;;;;;16.62;33.86;91778.06;2041926;70;20054;-87
2021/05/06 13:02:45;;;;;;;;;;;;;;;16.76;32.25;91772.03;2041927;70;20536;-82
2021/05/06 13:05:12;;;;;;;;;;;;;;;16.29;33.25;91768.06;2042054;70;20079;-88
2021/05/06 13:07:50;;;;;;;;;;;;;;;17.11;31.87;91765.00;2041965;70;20058;-81
2021/05/06 13:10:29;;;;;;;;;;;;;;;17.86;31.11;91765.13;2038790;70;20043;-84
2021/05/06 13:12:55;;;;;;;;;;;;;;;18.57;31.14;91763.53;2041946;70;20134;-80
2021/05/06 13:15:20;;;;;;;;;;;;;;;18.77;31.07;91755.31;2041952;70;20052;-81
2021/05/06 13:17:46;;;;;;;;;;;;;;;18.09;30.68;91744.19;2042043;70;20147;-81
2021/05/06 13:20:28;;;;;;;;;;;;;;;17.09;32.43;91747.16;2041651;70;20135;-80
2021/05/06 13:23:17;;;;;;;;;;;;;;;16.75;32.28;91737.22;2041374;70;20055;-79
2021/05/06 13:25:52;;;;;;;;;;;;;;;17.44;31.79;91735.13;2040287;70;20115;-80
2021/05/06 13:28:33;;;;;;;;;;;;;;;17.28;31.60;91734.81;2041142;70;20055;-81
2021/05/06 13:31:21;;;;;;;;;;;;;;;17.89;32.89;91727.47;2041603;70;20051;-80
2021/05/06 13:33:50;;;;;;;;;;;;;;;18.26;32.18;91728.09;2041660;70;20134;-80
2021/05/06 13:36:23;;;;;;;;;;;;;;;17.17;32.25;91727.44;2041696;70;20683;-80
2021/05/06 13:38:56;;;;;;;;;;;;;;;18.34;32.38;91727.53;2041633;70;20134;-80
2021/05/06 13:41:24;;;;;;;;;;;;;;;17.92;31.79;91716.84;2041863;70;20099;-79
2021/05/06 13:43:50;;;;;;;;;;;;;;;16.44;33.90;91709.47;2042041;70;20541;-80
2021/05/06 13:46:17;;;;;;;;;;;;;;;16.53;34.70;91706.13;2041747;70;20054;-80
2021/05/06 13:48:43;;;;;;;;;;;;;;;16.79;35.38;91704.59;2041371;70;20473;-80
2021/05/06 13:51:10;;;;;;;;;;;;;;;17.12;34.58;91712.41;2041993;70;20070;-80
2021/05/06 13:53:36;;;;;;;;;;;;;;;17.39;32.95;91710.13;2041905;70;20063;-79
2021/05/06 13:56:01;;;;;;;;;;;;;;;17.48;33.56;91703.91;2041875;70;20561;-81
2021/05/06 13:58:27;;;;;;;;;;;;;;;16.43;34.61;91705.19;2041892;70;20048;-83
2021/05/06 14:00:52;;;;;;;;;;;;;;;16.68;33.67;91698.69;2041575;70;20063;-80
2021/05/06 14:03:18;;;;;;;;;;;;;;;17.02;34.40;91689.47;2041979;70;20138;-80
2021/05/06 14:05:43;;;;;;;;;;;;;;;17.19;34.86;91696.94;2041800;70;20043;-80
2021/05/06 14:08:13;;;;;;;;;;;;;;;16.45;35.83;91694.59;2041761;70;20150;-79
2021/05/06 14:10:41;;;;;;;;;;;;;;;15.73;37.58;91692.16;2041824;70;20052;-80
2021/05/06 14:13:07;;;;;;;;;;;;;;;16.20;36.54;91692.59;2041821;70;20530;-81
2021/05/06 14:15:32;;;;;;;;;;;;;;;16.16;36.81;91690.34;2041805;70;20142;-81
2021/05/06 14:17:58;;;;;;;;;;;;;;;16.79;35.37;91690.41;2041256;70;20047;-79
2021/05/06 14:20:24;;;;;;;;;;;;;;;16.27;36.34;91677.16;2041898;70;20051;-80
2021/05/06 14:22:50;;;;;;;;;;;;;;;15.61;36.82;91682.56;2041948;70;20142;-83
2021/05/06 14:25:16;;;;;;;;;;;;;;;16.27;36.51;91674.31;2041789;70;20051;-80
2021/05/06 14:27:42;;;;;;;;;;;;;;;15.48;38.16;91670.19;2041816;70;20058;-83
2021/05/06 14:30:08;;;;;;;;;;;;;;;15.46;38.17;91681.47;2041837;70;20040;-81
2021/05/06 14:32:33;;;;;;;;;;;;;;;15.66;38.09;91673.50;2041814;70;20132;-80
2021/05/06 14:34:59;;;;;;;;;;;;;;;15.80;37.63;91673.16;2041914;70;20142;-80
2021/05/06 14:37:24;;;;;;;;;;;;;;;16.28;37.50;91675.75;2041826;70;20066;-79
2021/05/06 14:39:49;;;;;;;;;;;;;;;15.99;37.31;91665.84;2041825;70;20040;-81
2021/05/06 14:42:15;;;;;;;;;;;;;;;15.29;38.10;91668.25;2041763;70;20044;-80
2021/05/06 14:44:41;;;;;;;;;;;;;;;15.73;38.26;91663.06;2041759;70;20043;-80
2021/05/06 14:47:06;;;;;;;;;;;;;;;15.13;38.72;91666.44;2041626;70;20075;-79
2021/05/06 14:49:35;;;;;;;;;;;;;;;15.14;39.56;91653.69;2041794;70;20051;-81
2021/05/06 14:52:00;;;;;;;;;;;;;;;15.18;39.01;91661.59;2041702;70;20425;-81
2021/05/06 14:54:26;;;;;;;;;;;;;;;15.49;38.52;91658.19;2041739;70;20055;-80
2021/05/06 14:56:51;;;;;;;;;;;;;;;15.88;38.07;91638.59;2041968;70;20052;-79
2021/05/06 14:59:17;;;;;;;;;;;;;;;15.68;38.94;91650.16;2041255;70;20047;-80
2021/05/06 15:01:42;;;;;;;;;;;;;;;15.50;38.28;91648.28;2040980;70;20051;-80
2021/05/06 15:04:08;;;;;;;;;;;;;;;16.08;37.87;91644.75;2041737;70;20051;-80
2021/05/06 15:06:34;;;;;;;;;;;;;;;15.42;38.85;91644.50;2041675;70;20055;-80
2021/05/06 15:09:04;;;;;;;;;;;;;;;15.56;39.05;91644.88;2041848;70;20472;-80
2021/05/06 15:11:30;;;;;;;;;;;;;;;15.83;39.02;91648.41;2041849;70;20043;-80
2021/05/06 15:13:56;;;;;;;;;;;;;;;16.07;38.33;91643.31;2041720;70;20051;-79
2021/05/06 15:16:21;;;;;;;;;;;;;;;15.72;38.55;91648.16;2041598;70;20051;-80
2021/05/06 15:18:47;;;;;;;;;;;;;;;15.42;39.68;91648.06;2041599;70;20058;-80
2021/05/06 15:21:12;;;;;;;;;;;;;;;15.77;38.18;91646.13;2041717;70;20040;-80
2021/05/06 15:23:37;;;;;;;;;;;;;;;16.20;38.38;91655.66;2041827;70;20488;-80
2021/05/06 15:26:03;;;;;;;;;;;;;;;16.00;37.52;91656.63;2041629;70;20431;-80
2021/05/06 15:28:28;;;;;;;;;;;;;;;15.40;39.25;91644.47;2041604;70;20486;-81
2021/05/06 15:30:56;;;;;;;;;;;;;;;15.51;39.68;91657.50;2041549;70;20048;-80
2021/05/06 15:33:22;;;;;;;;;;;;;;;15.32;39.63;91653.47;2041679;70;20050;-80
2021/05/06 15:35:48;;;;;;;;;;;;;;;15.24;39.57;91650.41;2041633;70;20051;-79
2021/05/06 15:38:16;;;;;;;;;;;;;;;15.63;39.42;91654.25;2041618;70;20070;-80
2021/05/06 15:40:51;;;;;;;;;;;;;;;15.91;38.62;91651.44;2061389;69;20199;-80
2021/05/06 15:43:20;;;;;;;;;;;;;;;15.08;40.79;91653.53;2071729;69;20568;-79
2021/05/06 15:45:46;;;;;;;;;;;;;;;14.86;41.17;91652.91;2061309;69;20540;-79
2021/05/06 15:48:12;;;;;;;;;;;;;;;15.10;40.76;91653.59;2061588;69;20050;-79
2021/05/06 15:50:37;;;;;;;;;;;;;;;15.79;38.92;91642.63;2061565;69;20495;-79
2021/05/06 15:53:03;;;;;;;;;;;;;;;15.58;39.95;91635.69;2061530;69;20144;-79
2021/05/06 15:55:32;;;;;;;;;;;;;;;15.52;39.97;91644.75;2061450;69;20110;-79
2021/05/06 15:57:58;;;;;;;;;;;;;;;15.61;39.92;91642.84;2061417;69;20150;-80
2021/05/06 16:00:25;;;;;;;;;;;;;;;15.84;41.63;91644.88;2060281;69;20173;-79
2021/05/06 16:02:53;;;;;;;;;;;;;;;15.62;40.53;91647.84;2058091;69;20501;-78
2021/05/06 16:05:25;;;;;;;;;;;;;;;15.92;40.97;91645.09;2058104;69;20478;-80
2021/05/06 16:07:51;;;;;;;;;;;;;;;15.30;40.01;91632.84;2058036;69;20142;-81
2021/05/06 16:10:17;;;;;;;;;;;;;;;15.39;40.09;91629.53;2058083;69;20054;-81
2021/05/06 16:12:42;;;;;;;;;;;;;;;14.93;40.69;91641.06;2058044;69;20112;-82
2021/05/06 16:15:08;;;;;;;;;;;;;;;15.42;40.25;91630.31;2057935;69;20050;-82
2021/05/06 16:17:33;;;;;;;;;;;;;;;15.77;39.81;91634.78;2058083;69;20050;-80
2021/05/06 16:19:59;;;;;;;;;;;;;;;15.72;41.61;91631.13;2058199;69;20057;-79
2021/05/06 16:22:25;;;;;;;;;;;;;;;15.80;43.02;91636.25;2058163;69;20046;-79
2021/05/06 16:24:50;;;;;;;;;;;;;;;15.68;43.47;91635.97;2071101;69;20149;-82
2021/05/06 16:27:17;;;;;;;;;;;;;;;15.50;45.44;91645.44;2057976;69;20072;-79
2021/05/06 16:29:43;;;;;;;;;;;;;;;15.50;45.13;91647.56;2058137;69;20130;-79
2021/05/06 16:32:08;;;;;;;;;;;;;;;15.54;41.88;91636.31;2057932;69;20153;-80
2021/05/06 16:34:35;;;;;;;;;;;;;;;15.43;40.45;91641.00;2058134;69;20528;-79
2021/05/06 16:41:55;;;;;;;;;;;;;;;15.40;47.10;91636.66;2058020;69;20046;-79
2021/05/06 16:46:56;;;;;;;;;;;;;;;15.19;48.57;91638.25;2057931;69;20054;-79
2021/05/06 16:49:21;;;;;;;;;;;;;;;15.14;47.81;91633.13;2071080;69;20410;-79